Jack Northrop Field Hawthorne Municipal Airport
KHHR : now visible

Airfield :











YOU CAN JOIN US ON...

 
LOGIN :

Register | Disclaimer

   EN    FR    IT 

 









Legend :    VFR   Marginal VFR   IFR   Intensive IFR   Very Intensive IFR
Visi :
Ceiling :
>= 8 km
>= 3000ft
5 to 8 km
1000 to 3000 ft
1500m to 5 km
500 to 1000 ft
800 to 1500m
200 to 500 ft
< 800m
< 200 ft
Symbols :   Thunderstorms  Fog  Heavy snow  Heavy precipitations  Wind > 20 kt






- Airport Elevation : 66 ft


KHHR - Jack Northrop Field Hawthorne Municipal

CURRENT METAR :
  • 221331Z VRB03KT 10SM BKN030 OVC037 14/09 A2994 RMK AO2 T01440089

EXPIRED METARs :
  • 221323Z 25005KT 10SM BKN028 OVC035 14/09 A2993 RMK AO2 T01440094
  • 221253Z 26004KT 10SM OVC032 14/09 A2993 RMK AO2 SLP134 T01440094
  • 221241Z AUTO 27005KT 10SM OVC030 14/09 A2992 RMK AO2 T01440094
  • 221200Z AUTO 23005KT 10SM BKN024 OVC033 14/09 A2992 RMK AO2 T01440094
  • 221153Z AUTO 25007KT 10SM SCT026 BKN033 OVC042 14/09 A2992 RMK AO2 SLP131 T01440094 10144 20139 55003
  • 221142Z AUTO 27004KT 10SM BKN030 OVC034 14/09 A2992 RMK AO2 T01440094
  • 221053Z AUTO 00000KT 10SM OVC028 14/09 A2992 RMK AO2 SLP130 T01390094

TAF N/A
KZLA FIR / North America



MET'MAP, your aeronautical weather chart ! - Copyright ORBIFLY December 2007 - Disclaimer

ORBIFLY MET'MAP TEAM :

Programming & Development : Alexandra Zaïnal
Concept & original design : Baudouin d'Aumeries
Assistance for programming : Marc-Olivier Méhu
Technical & hardware support : Manuel Goepfert

Contact : metmap@orbifly.com




SOURCES & CREDITS :

   NOAA       Earth
Advisory